Time;durP1;ratioP1;P1;durP2;ratioP2;P2;SDS_P1;SDS_P2;PMS_P1;PMS_P2;Temp;Humidity;BMP_temperature;BMP_pressure;BME280_temperature;BME280_humidity;BME280_pressure;Samples;Min_cycle;Max_cycle;Signal;HPM_P1;HPM_P2
2024/01/01 00:00:39;;;;;;;7.20;4.60;;;;;;;24.82;34.67;98702.94;4987818;28;20027;-48
2024/01/01 00:03:04;;;;;;;7.50;4.78;;;;;;;24.82;34.48;98703.69;4985294;28;20033;-48
2024/01/01 00:05:30;;;;;;;7.90;4.88;;;;;;;24.81;34.59;98712.47;4981368;28;20043;-48
2024/01/01 00:07:56;;;;;;;7.07;4.65;;;;;;;24.82;34.39;98723.00;4981037;28;20031;-49
2024/01/01 00:10:21;;;;;;;7.13;4.85;;;;;;;24.81;34.46;98718.75;4981456;28;20027;-49
2024/01/01 00:12:47;;;;;;;6.32;4.38;;;;;;;24.79;34.32;98735.06;4979798;28;20035;-48
2024/01/01 00:15:13;;;;;;;6.93;3.95;;;;;;;24.81;34.49;98751.13;4985831;28;20038;-48
2024/01/01 00:17:39;;;;;;;6.53;3.92;;;;;;;24.81;34.48;98767.69;4981795;28;20109;-48
2024/01/01 00:20:05;;;;;;;6.70;4.10;;;;;;;24.80;34.37;98772.44;4987366;28;20014;-49
2024/01/01 00:22:31;;;;;;;6.18;4.38;;;;;;;24.76;34.32;98749.91;4983470;28;20027;-49
2024/01/01 00:24:57;;;;;;;6.68;4.40;;;;;;;24.77;34.18;98723.81;4984254;28;20033;-49
2024/01/01 00:27:22;;;;;;;6.80;4.30;;;;;;;24.76;34.36;98744.41;4981612;28;20497;-48
2024/01/01 00:29:47;;;;;;;6.47;4.00;;;;;;;24.76;34.24;98738.88;4981654;28;20023;-48
2024/01/01 00:32:13;;;;;;;6.38;3.67;;;;;;;24.76;34.34;98736.13;4983006;28;20092;-52
2024/01/01 00:34:38;;;;;;;6.18;3.80;;;;;;;24.77;34.16;98734.09;4979395;28;20027;-49
2024/01/01 00:37:03;;;;;;;6.50;4.00;;;;;;;24.75;34.32;98726.34;4980459;28;20026;-48
2024/01/01 00:39:29;;;;;;;5.90;3.60;;;;;;;24.77;34.37;98728.59;4982715;28;20030;-48
2024/01/01 00:41:54;;;;;;;6.32;3.83;;;;;;;24.74;34.32;98733.13;4982334;28;20044;-50
2024/01/01 00:44:20;;;;;;;5.53;3.40;;;;;;;24.74;34.51;98735.88;4980964;28;20482;-49
2024/01/01 00:46:45;;;;;;;5.90;3.70;;;;;;;24.76;34.36;98732.63;4983565;28;20034;-48
2024/01/01 00:49:10;;;;;;;6.43;3.70;;;;;;;24.77;34.34;98745.16;4983876;28;20492;-48
2024/01/01 00:51:36;;;;;;;6.43;3.88;;;;;;;24.75;34.30;98737.38;4982535;28;20030;-50
2024/01/01 00:54:01;;;;;;;5.57;3.45;;;;;;;24.77;34.48;98737.63;4981972;28;20033;-48
2024/01/01 00:56:26;;;;;;;6.00;3.60;;;;;;;24.78;34.46;98735.59;4982247;28;20030;-48
2024/01/01 00:58:52;;;;;;;5.68;3.40;;;;;;;24.76;34.46;98727.84;4980025;28;20053;-48
2024/01/01 01:01:17;;;;;;;5.65;3.55;;;;;;;24.75;34.46;98737.38;4984424;28;20035;-48
2024/01/01 01:03:42;;;;;;;5.93;3.35;;;;;;;24.75;34.58;98742.91;4982133;28;20026;-49
2024/01/01 01:06:08;;;;;;;5.95;3.60;;;;;;;24.75;34.44;98733.88;4983313;28;20389;-48
2024/01/01 01:08:33;;;;;;;5.70;3.33;;;;;;;24.72;34.47;98736.41;4982778;28;20031;-49
2024/01/01 01:10:58;;;;;;;6.18;3.20;;;;;;;24.73;34.58;98729.63;4982034;28;20033;-49
2024/01/01 01:13:24;;;;;;;5.30;3.05;;;;;;;24.73;34.56;98739.91;4981959;28;20539;-48
2024/01/01 01:15:49;;;;;;;5.38;3.30;;;;;;;24.73;34.60;98724.09;4981875;28;20031;-48
2024/01/01 01:18:15;;;;;;;5.85;3.03;;;;;;;24.73;34.62;98723.34;4981928;28;20026;-49
2024/01/01 01:20:40;;;;;;;5.20;3.00;;;;;;;24.73;34.63;98734.38;4981672;28;20054;-48
2024/01/01 01:23:06;;;;;;;5.32;2.97;;;;;;;24.72;34.71;98735.66;4983183;28;20076;-50
2024/01/01 01:25:31;;;;;;;5.40;3.10;;;;;;;24.71;34.44;98729.38;4987065;28;20389;-49
2024/01/01 01:27:57;;;;;;;5.28;3.10;;;;;;;24.72;34.54;98728.13;4984430;28;20034;-49
2024/01/01 01:30:22;;;;;;;5.38;3.03;;;;;;;24.71;34.57;98729.38;4987202;28;20470;-48
2024/01/01 01:32:48;;;;;;;5.35;2.90;;;;;;;24.72;34.58;98727.38;4985823;28;20034;-48
2024/01/01 01:35:13;;;;;;;6.00;3.40;;;;;;;24.71;34.73;98723.09;4985991;28;20026;-49
2024/01/01 01:37:38;;;;;;;5.10;2.80;;;;;;;24.74;34.71;98716.56;4984921;28;20034;-52
2024/01/01 01:40:04;;;;;;;5.50;3.05;;;;;;;24.72;34.63;98721.84;4988984;28;20041;-48
2024/01/01 01:42:30;;;;;;;5.25;2.88;;;;;;;24.70;34.67;98719.59;5013470;28;20494;-48
2024/01/01 01:44:55;;;;;;;5.10;2.90;;;;;;;24.70;34.75;98722.34;4985452;28;20029;-49
2024/01/01 01:47:22;;;;;;;5.15;2.70;;;;;;;24.72;34.66;98727.38;4983777;28;20033;-50
2024/01/01 01:49:47;;;;;;;5.18;2.83;;;;;;;24.67;34.87;98730.91;5015676;28;20498;-48
2024/01/01 01:52:13;;;;;;;5.43;2.78;;;;;;;24.69;34.78;98729.13;4985439;28;20109;-49
2024/01/01 01:54:38;;;;;;;5.20;2.65;;;;;;;24.69;34.64;98745.69;5018957;28;20026;-48
2024/01/01 01:57:04;;;;;;;4.93;2.75;;;;;;;24.72;34.76;98743.91;4985108;28;20615;-48
2024/01/01 01:59:29;;;;;;;5.05;2.55;;;;;;;24.69;34.89;98745.69;5017810;28;20537;-48
2024/01/01 02:01:56;;;;;;;4.80;2.60;;;;;;;24.72;34.64;98739.16;4981687;28;20023;-48
2024/01/01 02:04:23;;;;;;;5.00;2.85;;;;;;;24.69;34.87;98750.47;4984407;28;20022;-48
2024/01/01 02:06:48;;;;;;;5.10;2.70;;;;;;;24.69;34.61;98742.94;5013108;28;20045;-49
2024/01/01 02:09:13;;;;;;;5.15;2.60;;;;;;;24.69;34.62;98747.69;4983244;28;20800;-48
2024/01/01 02:11:39;;;;;;;4.63;2.50;;;;;;;24.69;34.67;98733.91;5010506;28;20505;-48
2024/01/01 02:14:11;;;;;;;4.78;2.55;;;;;;;24.68;34.75;98744.19;4987304;28;20242;-52
2024/01/01 02:16:36;;;;;;;4.60;2.60;;;;;;;24.70;34.67;98746.44;4986653;28;20030;-48
2024/01/01 02:19:03;;;;;;;4.63;2.30;;;;;;;24.68;34.62;98735.16;4988034;28;20022;-52
2024/01/01 02:21:30;;;;;;;4.63;2.45;;;;;;;24.67;34.74;98741.94;4993074;28;20184;-52
2024/01/01 02:23:55;;;;;;;4.85;2.55;;;;;;;24.69;34.74;98742.19;4982811;28;20022;-48
2024/01/01 02:26:20;;;;;;;4.47;2.28;;;;;;;24.67;34.81;98739.94;4987913;28;20026;-50
2024/01/01 02:28:46;;;;;;;4.50;2.05;;;;;;;24.69;34.74;98755.97;4971665;28;20022;-48
2024/01/01 02:31:11;;;;;;;4.35;2.20;;;;;;;24.71;34.78;98759.72;4983816;28;20037;-49
2024/01/01 02:33:36;;;;;;;4.35;2.20;;;;;;;24.68;34.83;98766.28;4982103;28;20081;-48
2024/01/01 02:36:02;;;;;;;5.15;2.50;;;;;;;24.70;34.81;98757.47;4987562;28;20030;-48
2024/01/01 02:38:27;;;;;;;4.22;2.10;;;;;;;24.70;34.80;98763.00;4982799;28;20390;-48
2024/01/01 02:40:53;;;;;;;4.70;2.42;;;;;;;24.70;34.83;98760.25;4993916;28;20034;-48
2024/01/01 02:43:18;;;;;;;4.22;2.15;;;;;;;24.71;34.61;98762.50;4984886;28;20050;-48
2024/01/01 02:45:43;;;;;;;4.32;2.10;;;;;;;24.71;34.64;98767.25;5022093;28;20506;-49
2024/01/01 02:48:09;;;;;;;4.47;2.30;;;;;;;24.71;34.78;98764.50;4984793;28;20030;-48
2024/01/01 02:50:36;;;;;;;4.43;2.15;;;;;;;24.70;34.79;98774.03;4987814;28;20028;-50
2024/01/01 02:53:01;;;;;;;4.65;2.22;;;;;;;24.70;34.78;98768.53;4982960;28;20046;-49
2024/01/01 02:55:26;;;;;;;4.30;2.17;;;;;;;24.68;34.74;98773.81;4984130;28;20377;-48
2024/01/01 02:57:52;;;;;;;4.80;2.40;;;;;;;24.69;34.84;98783.56;4980969;28;20050;-50
2024/01/01 03:00:17;;;;;;;4.20;2.00;;;;;;;24.68;34.65;98788.34;4985475;28;20018;-48
2024/01/01 03:02:42;;;;;;;4.18;1.95;;;;;;;24.70;34.98;98794.09;4990916;28;20029;-48
2024/01/01 03:05:08;;;;;;;4.13;2.08;;;;;;;24.69;34.87;98789.09;4984883;28;20022;-49
2024/01/01 03:07:33;;;;;;;4.18;2.00;;;;;;;24.68;34.83;98796.63;4985838;28;20038;-48
2024/01/01 03:09:59;;;;;;;3.88;2.00;;;;;;;24.68;34.73;98796.63;4982090;28;20106;-48
2024/01/01 03:12:24;;;;;;;4.38;2.20;;;;;;;24.70;34.73;98801.63;4989818;28;20097;-50
2024/01/01 03:14:49;;;;;;;4.55;1.98;;;;;;;24.69;34.68;98798.13;4981333;28;20041;-49
2024/01/01 03:17:15;;;;;;;4.35;1.92;;;;;;;24.68;34.78;98791.09;4983330;28;20037;-49
2024/01/01 03:19:40;;;;;;;4.20;1.80;;;;;;;24.69;34.93;98797.38;5012646;28;21234;-52
2024/01/01 03:22:05;;;;;;;4.13;1.90;;;;;;;24.70;34.75;98796.13;4983756;28;20027;-48
2024/01/01 03:24:31;;;;;;;3.95;1.85;;;;;;;24.70;34.81;98796.13;4984583;28;20484;-49
2024/01/01 03:26:56;;;;;;;4.35;1.95;;;;;;;24.68;34.87;98793.88;4987616;28;20024;-49
2024/01/01 03:29:21;;;;;;;3.95;1.90;;;;;;;24.70;34.66;98798.88;4985401;28;20026;-49
2024/01/01 03:31:47;;;;;;;4.18;1.83;;;;;;;24.70;34.63;98785.81;4988044;28;20026;-50
2024/01/01 03:34:12;;;;;;;3.63;1.73;;;;;;;24.67;34.78;98770.28;4975294;28;20394;-51
2024/01/01 03:36:38;;;;;;;4.45;2.10;;;;;;;24.68;34.79;98777.31;4982620;28;20073;-49
2024/01/01 03:39:03;;;;;;;3.75;1.70;;;;;;;24.71;34.84;98783.81;4981259;28;20019;-49
2024/01/01 03:41:29;;;;;;;3.80;1.83;;;;;;;24.70;34.68;98777.56;4986427;28;20030;-49
2024/01/01 03:43:56;;;;;;;3.80;1.73;;;;;;;24.70;34.84;98780.31;4979289;28;20026;-49
2024/01/01 03:46:22;;;;;;;3.60;1.80;;;;;;;24.70;34.75;98774.03;4983155;28;20021;-52
2024/01/01 03:48:47;;;;;;;3.75;1.80;;;;;;;24.71;34.71;98786.56;4981953;28;20037;-50
2024/01/01 03:51:13;;;;;;;3.88;1.80;;;;;;;24.71;34.61;98792.09;4982659;28;20102;-47
2024/01/01 03:53:38;;;;;;;3.58;1.60;;;;;;;24.73;34.82;98792.34;4981799;28;20030;-47
2024/01/01 03:56:04;;;;;;;3.83;1.70;;;;;;;24.72;34.69;98788.06;4979083;28;20029;-49
2024/01/01 03:58:29;;;;;;;3.97;1.77;;;;;;;24.72;34.75;98788.06;4982220;28;20058;-48
2024/01/01 04:00:54;;;;;;;4.20;1.70;;;;;;;24.71;34.73;98787.31;4976661;28;20015;-49
2024/01/01 04:03:20;;;;;;;3.60;1.83;;;;;;;24.70;34.89;98790.59;4980326;28;20042;-49
2024/01/01 04:05:45;;;;;;;3.40;1.50;;;;;;;24.71;34.91;98792.09;4983996;28;20021;-46
2024/01/01 04:08:11;;;;;;;3.40;1.50;;;;;;;24.71;34.82;98794.84;4978857;28;20619;-48
2024/01/01 04:10:36;;;;;;;3.53;1.60;;;;;;;24.72;34.93;98804.63;4983053;28;20380;-50
2024/01/01 04:13:02;;;;;;;3.63;1.50;;;;;;;24.70;34.78;98805.13;4981468;28;20027;-51
2024/01/01 04:15:27;;;;;;;3.50;1.58;;;;;;;24.70;34.92;98807.16;4983530;28;20509;-48
2024/01/01 04:17:52;;;;;;;3.60;1.50;;;;;;;24.70;34.92;98809.91;4982035;28;20032;-48
2024/01/01 04:20:18;;;;;;;3.75;1.70;;;;;;;24.71;34.84;98786.56;4982375;28;20032;-48
2024/01/01 04:22:45;;;;;;;3.15;1.48;;;;;;;24.69;34.84;98789.09;4981713;28;20425;-48
2024/01/01 04:25:10;;;;;;;3.95;1.70;;;;;;;24.69;34.92;98789.09;4982289;28;20376;-49
2024/01/01 04:27:36;;;;;;;4.03;1.80;;;;;;;24.71;34.76;98794.84;4979800;28;20035;-47
2024/01/01 04:30:04;;;;;;;3.15;1.30;;;;;;;24.69;34.77;98792.59;4980581;28;20027;-49
2024/01/01 04:32:29;;;;;;;4.35;1.60;;;;;;;24.71;34.88;98789.34;4981254;28;20022;-48
2024/01/01 04:34:55;;;;;;;3.70;1.50;;;;;;;24.71;34.83;98792.09;4981040;28;20106;-49
2024/01/01 04:37:20;;;;;;;3.28;1.42;;;;;;;24.70;35.02;98802.38;4981677;28;20026;-49
2024/01/01 04:39:46;;;;;;;3.47;1.50;;;;;;;24.69;34.97;98802.91;4983288;28;20034;-48
2024/01/01 04:42:11;;;;;;;3.15;1.45;;;;;;;24.69;34.90;98803.66;4983025;28;20035;-48
2024/01/01 04:44:36;;;;;;;3.90;1.55;;;;;;;24.70;34.89;98807.16;4984338;28;20531;-48
2024/01/01 04:47:02;;;;;;;3.78;1.40;;;;;;;24.69;34.94;98811.16;4981072;28;20030;-51
2024/01/01 04:49:27;;;;;;;3.42;1.50;;;;;;;24.67;34.99;98806.16;4978411;28;20363;-48
2024/01/01 04:51:53;;;;;;;3.63;1.60;;;;;;;24.69;35.09;98797.38;4981715;28;20491;-49
2024/01/01 04:54:18;;;;;;;3.47;1.58;;;;;;;24.69;34.83;98800.13;4978014;28;20467;-48
2024/01/01 04:56:43;;;;;;;3.90;1.58;;;;;;;24.70;34.92;98801.63;4978826;28;20034;-48
2024/01/01 04:59:09;;;;;;;2.78;1.30;;;;;;;24.69;34.78;98813.94;4984596;28;20030;-48
2024/01/01 05:01:34;;;;;;;3.60;1.45;;;;;;;24.71;34.85;98816.94;4987082;28;20405;-48
2024/01/01 05:04:00;;;;;;;2.67;1.25;;;;;;;24.68;34.81;98813.19;4980798;28;20430;-48
2024/01/01 05:06:25;;;;;;;3.08;1.40;;;;;;;24.71;34.95;98808.66;4985943;28;20036;-48
2024/01/01 05:08:50;;;;;;;3.00;1.40;;;;;;;24.70;34.93;98815.44;4986110;28;20030;-49
2024/01/01 05:11:16;;;;;;;2.60;1.20;;;;;;;24.69;34.90;98806.41;4984048;28;20027;-49
2024/01/01 05:13:41;;;;;;;2.75;1.30;;;;;;;24.69;34.81;98808.41;4984440;28;20048;-49
2024/01/01 05:16:10;;;;;;;3.10;1.40;;;;;;;24.68;34.79;98804.91;4983350;28;20375;-49
2024/01/01 05:18:35;;;;;;;2.90;1.10;;;;;;;24.68;34.86;98804.16;4986743;28;20049;-49
2024/01/01 05:21:00;;;;;;;3.03;1.33;;;;;;;24.65;34.79;98802.41;4984048;28;20026;-48
2024/01/01 05:23:26;;;;;;;2.45;1.10;;;;;;;24.61;34.59;98802.69;4986253;28;20041;-49
2024/01/01 05:25:51;;;;;;;3.47;1.33;;;;;;;24.60;34.69;98816.97;4986692;28;20030;-48
2024/01/01 05:28:17;;;;;;;2.65;1.13;;;;;;;24.58;34.71;98827.81;4984894;28;20034;-49
2024/01/01 05:30:42;;;;;;;3.70;1.30;;;;;;;24.60;34.75;98834.28;4985563;28;20030;-48
2024/01/01 05:33:07;;;;;;;2.70;1.20;;;;;;;24.59;34.71;98840.31;4986717;28;20710;-49
2024/01/01 05:35:33;;;;;;;2.85;1.13;;;;;;;24.58;34.70;98852.63;4984112;28;20520;-49
2024/01/01 05:37:58;;;;;;;3.30;1.30;;;;;;;24.59;34.57;98851.34;4996543;28;20030;-51
2024/01/01 05:40:23;;;;;;;2.65;1.23;;;;;;;24.59;34.50;98856.88;4986136;28;20034;-48
2024/01/01 05:42:49;;;;;;;4.07;1.27;;;;;;;24.60;34.64;98863.88;4980759;28;20389;-48
2024/01/01 05:45:14;;;;;;;3.30;1.20;;;;;;;24.59;34.64;98860.38;4983711;28;20034;-48
2024/01/01 05:47:40;;;;;;;3.88;1.30;;;;;;;24.56;34.80;98855.91;4987937;28;20052;-52
2024/01/01 05:50:06;;;;;;;3.78;1.20;;;;;;;24.56;34.91;98846.88;4985239;28;20035;-48
2024/01/01 05:52:31;;;;;;;2.45;1.10;;;;;;;24.57;34.75;98837.34;4987373;28;20048;-49
2024/01/01 05:54:56;;;;;;;4.30;1.40;;;;;;;24.59;34.76;98849.34;4986094;28;20060;-49
2024/01/01 05:57:22;;;;;;;5.00;1.20;;;;;;;24.58;34.76;98855.41;4984668;28;20030;-49
2024/01/01 05:59:47;;;;;;;3.28;1.40;;;;;;;24.59;34.89;98862.38;4985110;28;20104;-49
2024/01/01 06:02:12;;;;;;;3.20;1.10;;;;;;;24.58;34.92;98878.19;4984038;28;20029;-49
2024/01/01 06:04:38;;;;;;;2.80;1.23;;;;;;;24.58;34.82;98889.22;4987528;28;20030;-50
2024/01/01 06:07:03;;;;;;;4.35;1.10;;;;;;;24.57;34.79;98876.72;4980399;28;20053;-49
2024/01/01 06:09:28;;;;;;;3.72;1.20;;;;;;;24.60;35.14;98866.66;4983853;28;20018;-49
2024/01/01 06:11:54;;;;;;;3.50;1.20;;;;;;;24.59;35.04;98867.91;4983396;28;20034;-49
2024/01/01 06:14:19;;;;;;;2.65;1.00;;;;;;;24.59;35.09;98859.63;4984966;28;20034;-48
2024/01/01 06:16:45;;;;;;;3.13;1.27;;;;;;;24.59;34.83;98865.91;4985595;28;20060;-48
2024/01/01 06:19:10;;;;;;;2.72;1.10;;;;;;;24.62;34.95;98864.88;4984861;28;20026;-51
2024/01/01 06:21:36;;;;;;;3.72;1.30;;;;;;;24.61;34.87;98855.09;4986978;28;20385;-50
2024/01/01 06:24:01;;;;;;;3.95;1.30;;;;;;;24.63;34.89;98862.88;4985234;28;20018;-49
2024/01/01 06:26:27;;;;;;;3.40;1.10;;;;;;;24.65;34.89;98854.84;4979814;28;20077;-50
2024/01/01 06:28:52;;;;;;;3.13;1.20;;;;;;;24.66;34.93;98856.34;4984469;28;20022;-51
2024/01/01 06:31:17;;;;;;;2.80;1.25;;;;;;;24.68;34.71;98853.81;4984248;28;20045;-47
2024/01/01 06:33:43;;;;;;;5.28;1.20;;;;;;;24.73;35.09;98853.06;4979067;28;20494;-48
2024/01/01 06:36:09;;;;;;;3.80;1.30;;;;;;;24.75;35.11;98863.56;4985065;28;20034;-50
2024/01/01 06:38:36;;;;;;;4.57;1.20;;;;;;;24.66;35.53;98872.91;4986089;28;20362;-51
2024/01/01 06:41:01;;;;;;;7.35;1.13;;;;;;;24.65;35.51;98871.41;4987216;28;20072;-48
2024/01/01 06:43:27;;;;;;;6.05;1.10;;;;;;;24.63;35.73;98873.91;4985915;28;20039;-48
2024/01/01 06:45:52;;;;;;;2.97;1.10;;;;;;;24.70;35.41;98873.38;4981258;28;20029;-48
2024/01/01 06:48:17;;;;;;;6.70;1.42;;;;;;;24.68;35.45;98867.63;4983228;28;20031;-50
2024/01/01 06:50:43;;;;;;;4.90;1.20;;;;;;;24.62;35.13;98886.22;4981048;28;20046;-42
2024/01/01 06:53:08;;;;;;;3.47;1.30;;;;;;;24.52;35.14;98885.00;4980433;28;20474;-44
2024/01/01 06:55:34;;;;;;;4.30;1.40;;;;;;;24.52;35.08;98912.59;4981335;28;20026;-41
2024/01/01 06:57:59;;;;;;;3.97;1.30;;;;;;;24.49;34.86;98914.38;4981380;28;20026;-44
2024/01/01 07:00:24;;;;;;;3.97;1.23;;;;;;;24.49;34.53;98924.66;4984459;28;20029;-47
2024/01/01 07:02:50;;;;;;;3.55;1.30;;;;;;;24.47;34.32;98919.63;4982171;28;20367;-49
2024/01/01 07:05:15;;;;;;;5.30;1.48;;;;;;;24.45;34.32;98924.16;4982534;28;20029;-47
2024/01/01 07:07:40;;;;;;;4.10;1.30;;;;;;;24.39;34.03;98929.69;4982980;28;20033;-43
2024/01/01 07:10:06;;;;;;;4.97;1.35;;;;;;;24.36;33.99;98920.44;4980780;28;20027;-45
2024/01/01 07:12:32;;;;;;;3.60;1.30;;;;;;;24.43;33.89;98919.13;4984578;28;20045;-46
2024/01/01 07:14:57;;;;;;;3.40;1.40;;;;;;;24.43;33.95;98923.91;4982994;28;20470;-46
2024/01/01 07:17:22;;;;;;;3.58;1.20;;;;;;;24.43;33.90;98929.44;4979905;28;20080;-46
2024/01/01 07:19:48;;;;;;;3.60;1.27;;;;;;;24.36;34.15;98930.72;4981502;28;20453;-46
2024/01/01 07:22:13;;;;;;;3.75;1.30;;;;;;;24.39;33.56;98933.19;4983416;28;20045;-50
2024/01/01 07:24:39;;;;;;;3.83;1.30;;;;;;;24.37;33.65;98935.72;4978701;28;20018;-45
2024/01/01 07:27:04;;;;;;;3.20;1.30;;;;;;;24.34;33.65;98947.78;4981312;28;20030;-45
2024/01/01 07:29:30;;;;;;;3.65;1.15;;;;;;;24.35;33.51;98943.75;4980389;28;20173;-48
2024/01/01 07:31:55;;;;;;;3.20;1.20;;;;;;;24.28;33.45;98949.03;4985234;28;20019;-46
2024/01/01 07:34:21;;;;;;;4.72;1.05;;;;;;;24.30;33.35;98947.28;4986960;28;20104;-48
2024/01/01 07:36:47;;;;;;;3.47;1.38;;;;;;;24.29;33.15;98956.81;4982716;28;20026;-46
2024/01/01 07:39:12;;;;;;;3.30;1.20;;;;;;;24.29;32.78;98947.78;4983196;28;20026;-48
2024/01/01 07:41:38;;;;;;;3.05;1.20;;;;;;;24.23;32.75;98955.28;4981814;28;20041;-47
2024/01/01 07:44:04;;;;;;;4.85;1.20;;;;;;;24.17;32.97;98960.81;4976030;28;20373;-48
2024/01/01 07:46:29;;;;;;;2.30;1.00;;;;;;;24.17;32.84;98949.78;4979529;28;20449;-49
2024/01/01 07:48:55;;;;;;;2.58;1.00;;;;;;;24.10;32.79;98953.06;4982063;28;20029;-49
2024/01/01 07:51:21;;;;;;;4.45;1.23;;;;;;;24.18;32.83;98951.25;5016337;28;20033;-45
2024/01/01 07:53:46;;;;;;;2.78;1.10;;;;;;;24.28;32.52;98955.28;4987765;28;20022;-47
2024/01/01 07:56:11;;;;;;;2.35;1.00;;;;;;;24.32;33.01;98958.56;4975848;28;20049;-47
2024/01/01 07:58:37;;;;;;;4.47;1.20;;;;;;;24.38;32.77;98958.50;4982814;28;20026;-47
2024/01/01 08:01:02;;;;;;;3.03;1.13;;;;;;;24.41;32.87;98954.00;4983405;28;20518;-43
2024/01/01 08:03:27;;;;;;;3.80;1.33;;;;;;;24.45;32.84;98949.72;4980138;28;20052;-48
2024/01/01 08:05:53;;;;;;;2.60;1.05;;;;;;;24.49;33.28;98963.25;4981566;28;20496;-55
2024/01/01 08:08:18;;;;;;;2.78;1.10;;;;;;;24.60;33.25;98960.47;4985226;28;20034;-45
2024/01/01 08:10:44;;;;;;;3.58;1.27;;;;;;;24.61;32.91;98967.47;4982063;28;20398;-45
2024/01/01 08:13:09;;;;;;;2.67;1.20;;;;;;;24.60;33.00;98963.22;4985419;28;20058;-46
2024/01/01 08:15:34;;;;;;;4.35;1.20;;;;;;;24.59;32.87;98975.50;4981548;28;20022;-44
2024/01/01 08:18:01;;;;;;;17.52;1.83;;;;;;;24.70;33.08;98970.72;4983125;28;20575;-49
2024/01/01 08:20:26;;;;;;;12.45;1.30;;;;;;;24.66;33.03;98970.22;4982375;28;20466;-46
2024/01/01 08:22:52;;;;;;;6.80;1.50;;;;;;;24.63;32.44;98967.72;4983307;28;20036;-48
2024/01/01 08:25:17;;;;;;;5.68;1.20;;;;;;;24.60;32.85;98975.00;4979525;28;20045;-45
2024/01/01 08:27:42;;;;;;;5.75;1.48;;;;;;;24.61;33.10;98981.28;4982670;28;20026;-46
2024/01/01 08:30:08;;;;;;;4.75;1.77;;;;;;;24.56;32.84;98969.03;4978640;28;20033;-49
2024/01/01 08:32:33;;;;;;;5.72;1.48;;;;;;;24.57;33.27;98970.53;4986505;28;20396;-47
2024/01/01 08:34:59;;;;;;;3.55;1.38;;;;;;;24.56;32.89;98965.50;4989555;28;20065;-47
2024/01/01 08:37:24;;;;;;;5.43;1.40;;;;;;;24.57;32.87;98973.28;4989746;28;20041;-48
2024/01/01 08:39:49;;;;;;;4.00;1.27;;;;;;;24.58;32.72;98977.50;4988014;28;20015;-45
2024/01/01 08:42:15;;;;;;;3.90;1.15;;;;;;;24.57;33.00;98980.81;4989000;28;20045;-45
2024/01/01 08:44:40;;;;;;;3.65;1.25;;;;;;;24.55;32.72;98991.59;4989297;28;20022;-48
2024/01/01 08:47:06;;;;;;;3.03;1.00;;;;;;;24.55;32.83;99000.63;4987079;28;20444;-45
2024/01/01 08:49:31;;;;;;;3.45;1.20;;;;;;;24.54;32.73;98998.38;4986758;28;20042;-46
2024/01/01 08:51:56;;;;;;;2.75;1.00;;;;;;;24.34;32.70;98996.66;4992170;28;20030;-48
2024/01/01 08:54:22;;;;;;;3.65;1.20;;;;;;;24.27;32.28;98997.91;4989446;28;20038;-46
2024/01/01 08:56:48;;;;;;;4.05;1.20;;;;;;;24.16;31.96;99003.44;4984293;28;20026;-45
2024/01/01 08:59:13;;;;;;;5.13;1.40;;;;;;;24.11;32.26;98993.16;4988189;28;20030;-46
2024/01/01 09:01:43;;;;;;;3.17;1.20;;;;;;;24.04;31.86;99001.94;4979760;28;20037;-48
2024/01/01 09:04:08;;;;;;;5.18;1.30;;;;;;;23.93;31.53;99007.44;4985749;28;20026;-47
2024/01/01 09:06:33;;;;;;;3.95;1.45;;;;;;;23.91;32.69;99004.44;4985589;28;20027;-45
2024/01/01 09:08:59;;;;;;;10.27;1.60;;;;;;;24.00;32.87;99013.19;5014483;28;20022;-45
2024/01/01 09:11:24;;;;;;;9.18;1.60;;;;;;;23.91;31.77;99015.47;4983965;28;20033;-48
2024/01/01 09:13:49;;;;;;;4.43;1.27;;;;;;;23.82;31.56;99012.94;4984412;28;20096;-49
2024/01/01 09:16:15;;;;;;;5.97;1.45;;;;;;;23.78;31.84;99023.50;4982705;28;20032;-45
2024/01/01 09:18:40;;;;;;;3.30;1.30;;;;;;;23.81;31.35;99022.47;4989980;28;20385;-44
2024/01/01 09:21:12;;;;;;;2.97;1.10;;;;;;;23.73;31.22;99015.97;4985755;28;20039;-46
2024/01/01 09:23:37;;;;;;;3.20;1.17;;;;;;;23.65;31.49;99021.97;4989078;28;20033;-48
2024/01/01 09:26:03;;;;;;;4.75;1.20;;;;;;;23.73;31.21;99024.22;4987401;28;20030;-52
2024/01/01 09:28:28;;;;;;;3.92;1.40;;;;;;;23.65;31.22;99029.47;4983990;28;20022;-46
2024/01/01 09:30:55;;;;;;;4.75;1.33;;;;;;;23.73;30.89;99026.97;4987823;28;20486;-48
2024/01/01 09:33:21;;;;;;;6.07;1.30;;;;;;;23.74;31.09;99025.72;4980838;28;20031;-46
2024/01/01 09:35:46;;;;;;;5.13;1.48;;;;;;;23.64;31.15;99020.44;4982107;28;20030;-45
2024/01/01 09:38:12;;;;;;;5.05;1.77;;;;;;;23.66;30.73;99019.94;4977587;28;20038;-51
2024/01/01 09:40:37;;;;;;;5.22;1.40;;;;;;;23.53;30.98;99025.97;4983564;28;20468;-45
2024/01/01 09:43:03;;;;;;;4.22;1.35;;;;;;;23.52;30.70;99032.72;4983513;28;20030;-45
2024/01/01 09:45:28;;;;;;;4.00;1.33;;;;;;;23.51;30.96;99027.66;4987904;28;20037;-44
2024/01/01 09:47:53;;;;;;;3.75;1.20;;;;;;;23.46;30.73;99025.66;4984559;28;20031;-43
2024/01/01 09:50:19;;;;;;;5.78;1.50;;;;;;;23.48;30.63;99034.16;4998363;28;20085;-43
2024/01/01 09:52:44;;;;;;;4.45;1.38;;;;;;;23.44;30.59;99028.91;4982654;28;20389;-44
2024/01/01 09:55:09;;;;;;;4.45;1.60;;;;;;;23.42;30.63;99036.16;4985064;28;20038;-44
2024/01/01 09:57:35;;;;;;;4.90;1.38;;;;;;;23.48;30.65;99039.69;4981608;28;20072;-42
2024/01/01 10:00:05;;;;;;;3.60;1.30;;;;;;;23.54;30.30;99044.00;4982066;28;20023;-45
2024/01/01 10:02:30;;;;;;;3.30;1.30;;;;;;;23.49;30.54;99047.44;4982687;28;20027;-44
2024/01/01 10:05:12;;;;;;;5.65;1.60;;;;;;;23.54;30.55;99043.22;4982426;28;20130;-45
2024/01/01 10:07:38;;;;;;;3.92;1.42;;;;;;;23.53;30.51;99039.72;4985593;28;20077;-44
2024/01/01 10:10:03;;;;;;;4.90;1.70;;;;;;;23.50;30.69;99034.44;4987534;28;20470;-43
2024/01/01 10:12:29;;;;;;;4.15;1.58;;;;;;;23.60;30.63;99041.97;4984246;28;20030;-47
2024/01/01 10:14:57;;;;;;;3.63;1.40;;;;;;;23.65;30.40;99040.50;4985646;28;20424;-48
2024/01/01 10:17:22;;;;;;;6.28;1.60;;;;;;;23.81;30.43;99037.00;5014263;28;20034;-44
2024/01/01 10:19:54;;;;;;;5.18;1.70;;;;;;;23.84;30.69;99044.28;4984499;28;20022;-47
2024/01/01 10:22:20;;;;;;;5.78;1.75;;;;;;;23.87;30.33;99031.50;4983922;28;20157;-47
2024/01/01 10:24:55;;;;;;;4.03;1.50;;;;;;;23.91;30.58;99032.75;4981490;28;20044;-49
2024/01/01 10:27:22;;;;;;;7.20;1.55;;;;;;;23.92;30.17;99028.00;4986240;28;20105;-46
2024/01/01 10:29:47;;;;;;;3.33;1.10;;;;;;;23.77;29.95;99030.25;5013490;28;20054;-47
2024/01/01 10:32:17;;;;;;;5.10;1.30;;;;;;;23.78;30.18;99026.25;4986931;28;20481;-43
2024/01/01 10:34:47;;;;;;;3.75;1.45;;;;;;;23.75;30.06;99027.25;4985099;28;20066;-44
2024/01/01 10:37:15;;;;;;;5.10;1.30;;;;;;;23.68;30.05;99020.22;4987634;28;20030;-44
2024/01/01 10:39:42;;;;;;;4.07;1.30;;;;;;;23.69;30.09;99027.22;4982993;28;20015;-44
2024/01/01 10:42:09;;;;;;;6.50;1.40;;;;;;;23.73;30.01;99032.50;5007305;28;20102;-43
2024/01/01 10:44:34;;;;;;;3.97;1.48;;;;;;;23.87;30.14;99023.22;4662761;28;10000598;-52
2024/01/01 10:46:59;;;;;;;2.83;1.25;;;;;;;23.98;29.89;99023.25;4632615;28;10000588;-47
2024/01/01 10:49:29;;;;;;;4.72;1.35;;;;;;;24.03;30.00;99025.97;4987868;28;20030;-49
2024/01/01 10:52:17;;;;;;;3.70;1.50;;;;;;;24.09;29.69;99031.50;4978942;28;20037;-51
2024/01/01 10:55:15;;;;;;;4.43;1.50;;;;;;;24.07;29.73;99034.00;4293997;28;10000467;-54
2024/01/01 10:58:02;;;;;;;5.38;2.08;;;;;;;24.06;29.61;99043.53;5001554;28;20038;-50
2024/01/01 11:00:33;;;;;;;6.90;2.10;;;;;;;24.01;29.92;99030.50;4981139;28;20033;-49
2024/01/01 11:02:58;;;;;;;4.35;1.60;;;;;;;24.02;29.94;99032.00;4978763;28;20014;-50
2024/01/01 11:05:33;;;;;;;5.15;1.80;;;;;;;23.98;30.19;99042.53;4981574;28;20036;-50
2024/01/01 11:07:59;;;;;;;4.90;1.90;;;;;;;24.00;29.95;99031.75;4983114;28;20071;-49
2024/01/01 11:10:37;;;;;;;4.63;1.85;;;;;;;23.96;30.10;99045.03;4989064;28;20026;-49
2024/01/01 11:13:03;;;;;;;5.63;1.80;;;;;;;23.95;29.92;99043.53;4982139;28;20026;-49
2024/01/01 11:15:39;;;;;;;4.82;1.60;;;;;;;23.89;29.98;99040.03;4982442;28;20149;-50
2024/01/01 11:18:34;;;;;;;5.00;1.73;;;;;;;23.85;29.95;99040.25;4983960;28;20050;-50
2024/01/01 11:21:06;;;;;;;5.05;1.65;;;;;;;23.88;29.91;99033.00;4982781;28;20066;-50
2024/01/01 11:23:39;;;;;;;4.10;1.50;;;;;;;23.86;29.95;99036.25;4986191;28;20027;-50
2024/01/01 11:26:23;;;;;;;4.00;1.50;;;;;;;23.86;29.73;99039.00;4636633;28;10000018;-49
2024/01/01 11:28:51;;;;;;;17.45;14.32;;;;;;;23.87;29.73;99042.53;4975772;28;20035;-53